Selfridge Angb Airport
KMTC : now visible

Airfield :











YOU CAN JOIN US ON...

 
LOGIN :

Register | Disclaimer

   EN    FR    IT 

 









Legend :    VFR   Marginal VFR   IFR   Intensive IFR   Very Intensive IFR
Visi :
Ceiling :
>= 8 km
>= 3000ft
5 to 8 km
1000 to 3000 ft
1500m to 5 km
500 to 1000 ft
800 to 1500m
200 to 500 ft
< 800m
< 200 ft
Symbols :   Thunderstorms  Fog  Heavy snow  Heavy precipitations  Wind > 20 kt






- Airport Elevation : 580 ft


KMTC - Selfridge Angb

CURRENT METAR :
  • 271756Z 35008KT 10SM OVC014 01/01 A2985 RMK AO2A SLP119 T00140013 10015 20006 50006 $

EXPIRED METARs :
  • 271656Z 32007KT 10SM OVC014 01/01 A2986 RMK AO2A SLP122 T00140011 $
  • 271556Z 34009KT 10SM OVC014 01/01 A2985 RMK AO2A SLP119 T00120011 $

TAF TAF KMTC
Valid from the 27 at 17:00 until the 28 at 23:00 UTC


271700Z 2717/2823 32009KT 9999 OVC014 620208 QNH2986INS
BECMG 2723/2724 31009KT 9999 BKN011 OVC018 620119 QNH2990INS TX01/2719Z TNM01/2810Z



MET'MAP, your aeronautical weather chart ! - Copyright ORBIFLY December 2007 - Disclaimer

ORBIFLY MET'MAP TEAM :

Programming & Development : Alexandra Zaïnal
Concept & original design : Baudouin d'Aumeries
Assistance for programming : Marc-Olivier Méhu
Technical & hardware support : Manuel Goepfert

Contact : metmap@orbifly.com




SOURCES & CREDITS :

   NOAA       Earth
Advisory